sensor_id;sensor_type;location;lat;lon;timestamp;P1;durP1;ratioP1;P2;durP2;ratioP2
9042;SDS011;4556;49.150;8.808;2023-02-02T00:01:43;12.07;;;3.07;;
9042;SDS011;4556;49.150;8.808;2023-02-02T00:04:15;11.47;;;2.80;;
9042;SDS011;4556;49.150;8.808;2023-02-02T00:06:43;9.93;;;2.60;;
9042;SDS011;4556;49.150;8.808;2023-02-02T00:09:12;8.87;;;3.27;;
9042;SDS011;4556;49.150;8.808;2023-02-02T00:11:40;9.20;;;2.67;;
9042;SDS011;4556;49.150;8.808;2023-02-02T00:14:07;11.37;;;2.30;;
9042;SDS011;4556;49.150;8.808;2023-02-02T00:16:35;12.07;;;3.03;;
9042;SDS011;4556;49.150;8.808;2023-02-02T00:19:07;11.70;;;3.17;;
9042;SDS011;4556;49.150;8.808;2023-02-02T00:21:38;8.93;;;2.93;;
9042;SDS011;4556;49.150;8.808;2023-02-02T00:24:06;10.63;;;2.73;;
9042;SDS011;4556;49.150;8.808;2023-02-02T00:26:34;11.40;;;3.27;;
9042;SDS011;4556;49.150;8.808;2023-02-02T00:29:02;10.73;;;3.00;;
9042;SDS011;4556;49.150;8.808;2023-02-02T00:31:29;10.17;;;3.13;;
9042;SDS011;4556;49.150;8.808;2023-02-02T00:33:56;7.90;;;3.47;;
9042;SDS011;4556;49.150;8.808;2023-02-02T00:36:24;14.50;;;2.83;;
9042;SDS011;4556;49.150;8.808;2023-02-02T00:38:52;11.17;;;2.97;;
9042;SDS011;4556;49.150;8.808;2023-02-02T00:41:19;11.83;;;3.07;;
9042;SDS011;4556;49.150;8.808;2023-02-02T00:43:46;14.53;;;3.20;;
9042;SDS011;4556;49.150;8.808;2023-02-02T00:46:37;9.43;;;2.40;;
9042;SDS011;4556;49.150;8.808;2023-02-02T00:49:03;9.17;;;3.27;;
9042;SDS011;4556;49.150;8.808;2023-02-02T00:51:30;13.40;;;3.23;;
9042;SDS011;4556;49.150;8.808;2023-02-02T00:53:59;7.83;;;2.37;;
9042;SDS011;4556;49.150;8.808;2023-02-02T00:56:26;9.93;;;2.90;;
9042;SDS011;4556;49.150;8.808;2023-02-02T00:58:53;10.70;;;3.20;;
9042;SDS011;4556;49.150;8.808;2023-02-02T01:01:20;11.00;;;3.03;;
9042;SDS011;4556;49.150;8.808;2023-02-02T01:03:48;11.80;;;2.80;;
9042;SDS011;4556;49.150;8.808;2023-02-02T01:06:15;9.27;;;3.20;;
9042;SDS011;4556;49.150;8.808;2023-02-02T01:08:44;12.47;;;2.90;;
9042;SDS011;4556;49.150;8.808;2023-02-02T01:11:12;11.60;;;3.53;;
9042;SDS011;4556;49.150;8.808;2023-02-02T01:13:40;8.33;;;2.80;;
9042;SDS011;4556;49.150;8.808;2023-02-02T01:16:07;8.83;;;2.60;;
9042;SDS011;4556;49.150;8.808;2023-02-02T01:18:36;11.87;;;3.30;;
9042;SDS011;4556;49.150;8.808;2023-02-02T01:21:03;7.40;;;2.63;;
9042;SDS011;4556;49.150;8.808;2023-02-02T01:23:32;13.27;;;2.70;;
9042;SDS011;4556;49.150;8.808;2023-02-02T01:26:01;10.57;;;3.60;;
9042;SDS011;4556;49.150;8.808;2023-02-02T01:28:31;10.17;;;3.10;;
9042;SDS011;4556;49.150;8.808;2023-02-02T01:31:03;11.07;;;2.60;;
9042;SDS011;4556;49.150;8.808;2023-02-02T01:33:31;13.03;;;3.30;;
9042;SDS011;4556;49.150;8.808;2023-02-02T01:36:01;11.97;;;3.43;;
9042;SDS011;4556;49.150;8.808;2023-02-02T01:38:29;12.37;;;3.37;;
9042;SDS011;4556;49.150;8.808;2023-02-02T01:40:56;10.87;;;3.10;;
9042;SDS011;4556;49.150;8.808;2023-02-02T01:43:24;14.37;;;3.10;;
9042;SDS011;4556;49.150;8.808;2023-02-02T01:45:55;11.37;;;3.13;;
9042;SDS011;4556;49.150;8.808;2023-02-02T01:48:25;11.57;;;3.67;;
9042;SDS011;4556;49.150;8.808;2023-02-02T01:50:56;10.73;;;2.93;;
9042;SDS011;4556;49.150;8.808;2023-02-02T01:53:26;13.47;;;3.30;;
9042;SDS011;4556;49.150;8.808;2023-02-02T01:55:55;15.43;;;3.17;;
9042;SDS011;4556;49.150;8.808;2023-02-02T01:58:23;15.27;;;3.37;;
9042;SDS011;4556;49.150;8.808;2023-02-02T02:00:54;10.87;;;2.67;;
9042;SDS011;4556;49.150;8.808;2023-02-02T02:03:22;13.87;;;3.47;;
9042;SDS011;4556;49.150;8.808;2023-02-02T02:05:52;13.60;;;3.37;;
9042;SDS011;4556;49.150;8.808;2023-02-02T02:08:22;8.33;;;3.33;;
9042;SDS011;4556;49.150;8.808;2023-02-02T02:10:52;12.73;;;3.60;;
9042;SDS011;4556;49.150;8.808;2023-02-02T02:13:19;9.97;;;3.10;;
9042;SDS011;4556;49.150;8.808;2023-02-02T02:16:11;12.27;;;3.27;;
9042;SDS011;4556;49.150;8.808;2023-02-02T02:18:48;15.63;;;3.33;;
9042;SDS011;4556;49.150;8.808;2023-02-02T02:21:24;10.73;;;2.90;;
9042;SDS011;4556;49.150;8.808;2023-02-02T02:24:29;8.27;;;2.73;;
9042;SDS011;4556;49.150;8.808;2023-02-02T02:30:57;10.10;;;3.03;;
9042;SDS011;4556;49.150;8.808;2023-02-02T02:33:45;14.90;;;3.20;;
9042;SDS011;4556;49.150;8.808;2023-02-02T02:36:19;15.30;;;3.83;;
9042;SDS011;4556;49.150;8.808;2023-02-02T02:38:55;12.13;;;3.23;;
9042;SDS011;4556;49.150;8.808;2023-02-02T02:41:27;10.77;;;2.80;;
9042;SDS011;4556;49.150;8.808;2023-02-02T02:43:59;14.10;;;3.50;;
9042;SDS011;4556;49.150;8.808;2023-02-02T02:46:29;11.67;;;2.80;;
9042;SDS011;4556;49.150;8.808;2023-02-02T02:48:58;12.87;;;3.20;;
9042;SDS011;4556;49.150;8.808;2023-02-02T02:51:40;7.93;;;3.13;;
9042;SDS011;4556;49.150;8.808;2023-02-02T02:54:10;14.23;;;3.17;;
9042;SDS011;4556;49.150;8.808;2023-02-02T02:56:41;8.60;;;3.07;;
9042;SDS011;4556;49.150;8.808;2023-02-02T02:59:17;15.47;;;3.50;;
9042;SDS011;4556;49.150;8.808;2023-02-02T03:01:55;11.67;;;3.03;;
9042;SDS011;4556;49.150;8.808;2023-02-02T03:04:32;16.53;;;3.60;;
9042;SDS011;4556;49.150;8.808;2023-02-02T03:07:07;10.13;;;2.90;;
9042;SDS011;4556;49.150;8.808;2023-02-02T03:09:39;10.50;;;3.00;;
9042;SDS011;4556;49.150;8.808;2023-02-02T03:12:09;14.13;;;3.10;;
9042;SDS011;4556;49.150;8.808;2023-02-02T03:14:37;10.27;;;3.40;;
9042;SDS011;4556;49.150;8.808;2023-02-02T03:17:04;12.33;;;3.77;;
9042;SDS011;4556;49.150;8.808;2023-02-02T03:19:33;13.77;;;3.07;;
9042;SDS011;4556;49.150;8.808;2023-02-02T03:22:00;14.00;;;3.47;;
9042;SDS011;4556;49.150;8.808;2023-02-02T03:24:27;14.43;;;2.97;;
9042;SDS011;4556;49.150;8.808;2023-02-02T03:26:54;10.67;;;2.90;;
9042;SDS011;4556;49.150;8.808;2023-02-02T03:29:21;12.53;;;3.20;;
9042;SDS011;4556;49.150;8.808;2023-02-02T03:31:48;12.13;;;3.00;;
9042;SDS011;4556;49.150;8.808;2023-02-02T03:34:16;11.97;;;3.30;;
9042;SDS011;4556;49.150;8.808;2023-02-02T03:36:45;11.57;;;2.90;;
9042;SDS011;4556;49.150;8.808;2023-02-02T03:39:12;9.93;;;3.10;;
9042;SDS011;4556;49.150;8.808;2023-02-02T03:41:39;18.33;;;3.40;;
9042;SDS011;4556;49.150;8.808;2023-02-02T03:44:06;8.87;;;3.33;;
9042;SDS011;4556;49.150;8.808;2023-02-02T03:46:33;12.07;;;3.13;;
9042;SDS011;4556;49.150;8.808;2023-02-02T03:49:00;11.17;;;3.37;;
9042;SDS011;4556;49.150;8.808;2023-02-02T03:51:27;15.40;;;3.47;;
9042;SDS011;4556;49.150;8.808;2023-02-02T03:53:56;11.60;;;2.97;;
9042;SDS011;4556;49.150;8.808;2023-02-02T03:56:23;11.40;;;3.03;;
9042;SDS011;4556;49.150;8.808;2023-02-02T03:58:50;10.67;;;3.23;;
9042;SDS011;4556;49.150;8.808;2023-02-02T04:01:17;11.03;;;3.53;;
9042;SDS011;4556;49.150;8.808;2023-02-02T04:03:53;11.37;;;3.03;;
9042;SDS011;4556;49.150;8.808;2023-02-02T04:06:20;12.33;;;3.37;;
9042;SDS011;4556;49.150;8.808;2023-02-02T04:08:47;13.60;;;3.13;;
9042;SDS011;4556;49.150;8.808;2023-02-02T04:11:15;10.17;;;3.03;;
9042;SDS011;4556;49.150;8.808;2023-02-02T04:13:43;12.73;;;2.90;;
9042;SDS011;4556;49.150;8.808;2023-02-02T04:16:10;15.33;;;4.07;;
9042;SDS011;4556;49.150;8.808;2023-02-02T04:18:37;10.53;;;3.37;;
9042;SDS011;4556;49.150;8.808;2023-02-02T04:21:05;13.40;;;3.20;;
9042;SDS011;4556;49.150;8.808;2023-02-02T04:23:33;11.97;;;2.70;;
9042;SDS011;4556;49.150;8.808;2023-02-02T04:26:00;16.60;;;3.23;;
9042;SDS011;4556;49.150;8.808;2023-02-02T04:28:28;12.80;;;3.87;;
9042;SDS011;4556;49.150;8.808;2023-02-02T04:30:56;13.80;;;3.50;;
9042;SDS011;4556;49.150;8.808;2023-02-02T04:33:23;14.80;;;3.20;;
9042;SDS011;4556;49.150;8.808;2023-02-02T04:35:51;10.90;;;3.57;;
9042;SDS011;4556;49.150;8.808;2023-02-02T04:38:18;7.40;;;3.00;;
9042;SDS011;4556;49.150;8.808;2023-02-02T04:40:46;10.10;;;3.23;;
9042;SDS011;4556;49.150;8.808;2023-02-02T04:43:13;13.23;;;3.27;;
9042;SDS011;4556;49.150;8.808;2023-02-02T04:45:42;13.73;;;3.97;;
9042;SDS011;4556;49.150;8.808;2023-02-02T04:48:10;12.17;;;2.90;;
9042;SDS011;4556;49.150;8.808;2023-02-02T04:50:36;10.97;;;3.37;;
9042;SDS011;4556;49.150;8.808;2023-02-02T04:53:03;10.27;;;3.30;;
9042;SDS011;4556;49.150;8.808;2023-02-02T04:55:34;11.40;;;3.63;;
9042;SDS011;4556;49.150;8.808;2023-02-02T04:58:02;14.60;;;3.77;;
9042;SDS011;4556;49.150;8.808;2023-02-02T05:00:29;14.17;;;3.40;;
9042;SDS011;4556;49.150;8.808;2023-02-02T05:02:58;12.50;;;3.20;;
9042;SDS011;4556;49.150;8.808;2023-02-02T05:05:25;12.30;;;3.40;;
9042;SDS011;4556;49.150;8.808;2023-02-02T05:07:53;13.50;;;3.17;;
9042;SDS011;4556;49.150;8.808;2023-02-02T05:10:20;14.53;;;3.77;;
9042;SDS011;4556;49.150;8.808;2023-02-02T05:12:47;13.27;;;2.93;;
9042;SDS011;4556;49.150;8.808;2023-02-02T05:15:14;14.13;;;3.17;;
9042;SDS011;4556;49.150;8.808;2023-02-02T05:17:41;14.17;;;2.80;;
9042;SDS011;4556;49.150;8.808;2023-02-02T05:20:11;11.30;;;3.40;;
9042;SDS011;4556;49.150;8.808;2023-02-02T05:22:38;9.63;;;3.47;;
9042;SDS011;4556;49.150;8.808;2023-02-02T05:25:06;12.90;;;3.00;;
9042;SDS011;4556;49.150;8.808;2023-02-02T05:27:33;12.53;;;3.60;;
9042;SDS011;4556;49.150;8.808;2023-02-02T05:30:00;10.50;;;3.10;;
9042;SDS011;4556;49.150;8.808;2023-02-02T05:32:28;16.60;;;4.13;;
9042;SDS011;4556;49.150;8.808;2023-02-02T05:34:55;12.37;;;3.30;;
9042;SDS011;4556;49.150;8.808;2023-02-02T05:37:24;13.57;;;3.73;;
9042;SDS011;4556;49.150;8.808;2023-02-02T05:39:51;10.80;;;3.20;;
9042;SDS011;4556;49.150;8.808;2023-02-02T05:42:18;11.93;;;3.17;;
9042;SDS011;4556;49.150;8.808;2023-02-02T05:44:45;14.30;;;3.13;;
9042;SDS011;4556;49.150;8.808;2023-02-02T05:47:12;9.87;;;3.00;;
9042;SDS011;4556;49.150;8.808;2023-02-02T05:49:39;17.03;;;4.07;;
9042;SDS011;4556;49.150;8.808;2023-02-02T05:52:06;12.07;;;3.00;;
9042;SDS011;4556;49.150;8.808;2023-02-02T05:54:34;10.43;;;3.17;;
9042;SDS011;4556;49.150;8.808;2023-02-02T05:57:01;12.80;;;3.30;;
9042;SDS011;4556;49.150;8.808;2023-02-02T05:59:29;10.83;;;3.67;;
9042;SDS011;4556;49.150;8.808;2023-02-02T06:01:56;12.10;;;3.20;;
9042;SDS011;4556;49.150;8.808;2023-02-02T06:04:23;9.70;;;2.73;;
9042;SDS011;4556;49.150;8.808;2023-02-02T06:06:50;12.27;;;3.30;;
9042;SDS011;4556;49.150;8.808;2023-02-02T06:09:17;14.13;;;3.30;;
9042;SDS011;4556;49.150;8.808;2023-02-02T06:11:46;9.10;;;2.80;;
9042;SDS011;4556;49.150;8.808;2023-02-02T06:14:14;11.03;;;2.67;;
9042;SDS011;4556;49.150;8.808;2023-02-02T06:16:41;9.80;;;3.00;;
9042;SDS011;4556;49.150;8.808;2023-02-02T06:19:08;11.40;;;3.47;;
9042;SDS011;4556;49.150;8.808;2023-02-02T06:21:35;9.50;;;3.50;;
9042;SDS011;4556;49.150;8.808;2023-02-02T06:24:02;12.23;;;3.47;;
9042;SDS011;4556;49.150;8.808;2023-02-02T06:26:30;13.77;;;3.17;;
9042;SDS011;4556;49.150;8.808;2023-02-02T06:28:58;14.63;;;3.80;;
9042;SDS011;4556;49.150;8.808;2023-02-02T06:31:28;13.33;;;3.47;;
9042;SDS011;4556;49.150;8.808;2023-02-02T06:33:56;17.33;;;3.33;;
9042;SDS011;4556;49.150;8.808;2023-02-02T06:36:24;15.93;;;3.60;;
9042;SDS011;4556;49.150;8.808;2023-02-02T06:38:53;14.37;;;3.30;;
9042;SDS011;4556;49.150;8.808;2023-02-02T06:41:22;12.80;;;3.70;;
9042;SDS011;4556;49.150;8.808;2023-02-02T06:43:50;12.93;;;3.47;;
9042;SDS011;4556;49.150;8.808;2023-02-02T06:46:18;12.03;;;3.60;;
9042;SDS011;4556;49.150;8.808;2023-02-02T06:48:47;11.53;;;3.30;;
9042;SDS011;4556;49.150;8.808;2023-02-02T06:51:14;14.77;;;3.87;;
9042;SDS011;4556;49.150;8.808;2023-02-02T06:53:45;10.07;;;3.00;;
9042;SDS011;4556;49.150;8.808;2023-02-02T06:56:13;13.40;;;3.40;;
9042;SDS011;4556;49.150;8.808;2023-02-02T06:58:40;12.20;;;3.50;;
9042;SDS011;4556;49.150;8.808;2023-02-02T07:01:07;11.87;;;3.30;;
9042;SDS011;4556;49.150;8.808;2023-02-02T07:03:37;11.20;;;3.27;;
9042;SDS011;4556;49.150;8.808;2023-02-02T07:06:11;13.60;;;3.50;;
9042;SDS011;4556;49.150;8.808;2023-02-02T07:08:40;13.80;;;3.23;;
9042;SDS011;4556;49.150;8.808;2023-02-02T07:11:07;13.53;;;3.50;;
9042;SDS011;4556;49.150;8.808;2023-02-02T07:13:35;13.80;;;3.80;;
9042;SDS011;4556;49.150;8.808;2023-02-02T07:16:03;14.17;;;3.60;;
9042;SDS011;4556;49.150;8.808;2023-02-02T07:18:30;10.00;;;3.40;;
9042;SDS011;4556;49.150;8.808;2023-02-02T07:20:59;11.53;;;3.47;;
9042;SDS011;4556;49.150;8.808;2023-02-02T07:23:26;16.80;;;4.20;;
9042;SDS011;4556;49.150;8.808;2023-02-02T07:26:00;15.00;;;3.77;;
9042;SDS011;4556;49.150;8.808;2023-02-02T07:28:28;11.37;;;3.70;;
9042;SDS011;4556;49.150;8.808;2023-02-02T07:30:55;17.43;;;3.43;;
9042;SDS011;4556;49.150;8.808;2023-02-02T07:33:22;17.17;;;3.97;;
9042;SDS011;4556;49.150;8.808;2023-02-02T07:35:50;14.27;;;4.07;;
9042;SDS011;4556;49.150;8.808;2023-02-02T07:38:19;16.13;;;3.20;;
9042;SDS011;4556;49.150;8.808;2023-02-02T07:40:46;12.27;;;4.20;;
9042;SDS011;4556;49.150;8.808;2023-02-02T07:43:13;15.30;;;3.67;;
9042;SDS011;4556;49.150;8.808;2023-02-02T07:45:40;14.47;;;4.67;;
9042;SDS011;4556;49.150;8.808;2023-02-02T07:48:07;13.17;;;4.20;;
9042;SDS011;4556;49.150;8.808;2023-02-02T07:50:34;11.47;;;3.50;;
9042;SDS011;4556;49.150;8.808;2023-02-02T07:53:01;13.57;;;4.20;;
9042;SDS011;4556;49.150;8.808;2023-02-02T07:55:30;9.83;;;3.77;;
9042;SDS011;4556;49.150;8.808;2023-02-02T07:58:00;14.47;;;4.07;;
9042;SDS011;4556;49.150;8.808;2023-02-02T08:00:27;12.27;;;3.63;;
9042;SDS011;4556;49.150;8.808;2023-02-02T08:02:54;10.70;;;3.30;;
9042;SDS011;4556;49.150;8.808;2023-02-02T08:05:22;12.30;;;3.60;;
9042;SDS011;4556;49.150;8.808;2023-02-02T08:07:49;15.20;;;3.87;;
9042;SDS011;4556;49.150;8.808;2023-02-02T08:10:16;8.77;;;3.77;;
9042;SDS011;4556;49.150;8.808;2023-02-02T08:12:45;10.47;;;3.53;;
9042;SDS011;4556;49.150;8.808;2023-02-02T08:15:11;15.57;;;3.50;;
9042;SDS011;4556;49.150;8.808;2023-02-02T08:17:39;15.10;;;4.60;;
9042;SDS011;4556;49.150;8.808;2023-02-02T08:20:11;12.40;;;3.03;;
9042;SDS011;4556;49.150;8.808;2023-02-02T08:22:40;13.60;;;3.60;;
9042;SDS011;4556;49.150;8.808;2023-02-02T08:25:07;15.63;;;4.17;;
9042;SDS011;4556;49.150;8.808;2023-02-02T08:27:34;11.70;;;3.87;;
9042;SDS011;4556;49.150;8.808;2023-02-02T08:30:03;11.63;;;3.47;;
9042;SDS011;4556;49.150;8.808;2023-02-02T08:32:30;12.70;;;3.50;;
9042;SDS011;4556;49.150;8.808;2023-02-02T08:34:57;14.90;;;3.53;;
9042;SDS011;4556;49.150;8.808;2023-02-02T08:37:24;16.70;;;3.70;;
9042;SDS011;4556;49.150;8.808;2023-02-02T08:39:51;11.23;;;3.37;;
9042;SDS011;4556;49.150;8.808;2023-02-02T08:42:18;10.47;;;4.30;;
9042;SDS011;4556;49.150;8.808;2023-02-02T08:44:45;9.33;;;4.17;;
9042;SDS011;4556;49.150;8.808;2023-02-02T08:47:14;11.53;;;3.47;;
9042;SDS011;4556;49.150;8.808;2023-02-02T08:49:41;14.53;;;4.00;;
9042;SDS011;4556;49.150;8.808;2023-02-02T08:52:09;13.03;;;3.57;;
9042;SDS011;4556;49.150;8.808;2023-02-02T08:54:36;11.40;;;3.40;;
9042;SDS011;4556;49.150;8.808;2023-02-02T08:57:03;11.87;;;3.53;;
9042;SDS011;4556;49.150;8.808;2023-02-02T08:59:30;8.57;;;2.97;;
9042;SDS011;4556;49.150;8.808;2023-02-02T09:01:57;13.67;;;3.27;;
9042;SDS011;4556;49.150;8.808;2023-02-02T09:04:25;12.03;;;3.27;;
9042;SDS011;4556;49.150;8.808;2023-02-02T09:06:52;12.33;;;3.80;;
9042;SDS011;4556;49.150;8.808;2023-02-02T09:09:19;13.27;;;3.93;;
9042;SDS011;4556;49.150;8.808;2023-02-02T09:11:46;11.50;;;3.20;;
9042;SDS011;4556;49.150;8.808;2023-02-02T09:14:13;11.77;;;3.10;;
9042;SDS011;4556;49.150;8.808;2023-02-02T09:16:41;11.43;;;4.00;;
9042;SDS011;4556;49.150;8.808;2023-02-02T09:19:09;9.77;;;3.13;;
9042;SDS011;4556;49.150;8.808;2023-02-02T09:21:40;8.07;;;3.37;;
9042;SDS011;4556;49.150;8.808;2023-02-02T09:24:08;12.10;;;4.13;;
9042;SDS011;4556;49.150;8.808;2023-02-02T09:26:37;14.90;;;3.30;;
9042;SDS011;4556;49.150;8.808;2023-02-02T09:29:06;16.27;;;3.93;;
9042;SDS011;4556;49.150;8.808;2023-02-02T09:31:36;9.47;;;3.93;;
9042;SDS011;4556;49.150;8.808;2023-02-02T09:34:06;12.60;;;3.60;;
9042;SDS011;4556;49.150;8.808;2023-02-02T09:36:35;11.37;;;3.40;;
9042;SDS011;4556;49.150;8.808;2023-02-02T09:39:05;13.93;;;3.67;;
9042;SDS011;4556;49.150;8.808;2023-02-02T09:44:38;15.20;;;3.83;;
9042;SDS011;4556;49.150;8.808;2023-02-02T09:47:15;13.17;;;3.30;;
9042;SDS011;4556;49.150;8.808;2023-02-02T09:49:48;13.80;;;3.67;;
9042;SDS011;4556;49.150;8.808;2023-02-02T09:52:23;15.47;;;4.13;;
9042;SDS011;4556;49.150;8.808;2023-02-02T09:54:57;16.97;;;3.37;;
9042;SDS011;4556;49.150;8.808;2023-02-02T09:57:30;15.67;;;3.83;;
9042;SDS011;4556;49.150;8.808;2023-02-02T10:00:02;11.30;;;4.10;;
9042;SDS011;4556;49.150;8.808;2023-02-02T10:02:32;12.53;;;3.73;;
9042;SDS011;4556;49.150;8.808;2023-02-02T10:05:07;13.73;;;3.77;;
9042;SDS011;4556;49.150;8.808;2023-02-02T10:07:40;14.50;;;4.23;;
9042;SDS011;4556;49.150;8.808;2023-02-02T10:10:13;11.27;;;3.47;;
9042;SDS011;4556;49.150;8.808;2023-02-02T10:12:45;9.73;;;3.37;;
9042;SDS011;4556;49.150;8.808;2023-02-02T10:15:18;12.27;;;3.60;;
9042;SDS011;4556;49.150;8.808;2023-02-02T10:17:58;14.13;;;3.40;;
9042;SDS011;4556;49.150;8.808;2023-02-02T10:20:32;8.47;;;3.47;;
9042;SDS011;4556;49.150;8.808;2023-02-02T10:23:07;15.10;;;3.53;;
9042;SDS011;4556;49.150;8.808;2023-02-02T10:25:48;11.90;;;4.00;;
9042;SDS011;4556;49.150;8.808;2023-02-02T10:28:25;10.30;;;3.57;;
9042;SDS011;4556;49.150;8.808;2023-02-02T10:31:07;11.37;;;3.93;;
9042;SDS011;4556;49.150;8.808;2023-02-02T10:33:43;15.63;;;3.67;;
9042;SDS011;4556;49.150;8.808;2023-02-02T10:36:20;13.23;;;3.50;;
9042;SDS011;4556;49.150;8.808;2023-02-02T10:38:58;11.60;;;4.07;;
9042;SDS011;4556;49.150;8.808;2023-02-02T10:41:37;14.67;;;3.50;;
9042;SDS011;4556;49.150;8.808;2023-02-02T10:44:13;14.83;;;4.03;;
9042;SDS011;4556;49.150;8.808;2023-02-02T10:46:48;12.70;;;3.47;;
9042;SDS011;4556;49.150;8.808;2023-02-02T10:49:20;12.47;;;3.57;;
9042;SDS011;4556;49.150;8.808;2023-02-02T10:51:53;14.20;;;3.47;;
9042;SDS011;4556;49.150;8.808;2023-02-02T10:57:18;11.63;;;3.20;;
9042;SDS011;4556;49.150;8.808;2023-02-02T10:59:52;10.10;;;3.23;;
9042;SDS011;4556;49.150;8.808;2023-02-02T11:02:27;14.87;;;3.37;;
9042;SDS011;4556;49.150;8.808;2023-02-02T11:04:55;8.97;;;3.00;;
9042;SDS011;4556;49.150;8.808;2023-02-02T11:07:39;11.37;;;3.23;;
9042;SDS011;4556;49.150;8.808;2023-02-02T11:10:07;15.40;;;3.40;;
9042;SDS011;4556;49.150;8.808;2023-02-02T11:12:36;11.77;;;3.17;;
9042;SDS011;4556;49.150;8.808;2023-02-02T11:15:08;11.57;;;3.67;;
9042;SDS011;4556;49.150;8.808;2023-02-02T11:17:50;11.33;;;3.23;;
9042;SDS011;4556;49.150;8.808;2023-02-02T11:20:22;14.93;;;3.37;;
9042;SDS011;4556;49.150;8.808;2023-02-02T11:23:00;13.00;;;3.47;;
9042;SDS011;4556;49.150;8.808;2023-02-02T11:25:32;15.13;;;4.10;;
9042;SDS011;4556;49.150;8.808;2023-02-02T11:28:10;11.83;;;3.27;;
9042;SDS011;4556;49.150;8.808;2023-02-02T11:30:44;9.83;;;2.93;;
9042;SDS011;4556;49.150;8.808;2023-02-02T11:33:18;12.50;;;3.27;;
9042;SDS011;4556;49.150;8.808;2023-02-02T11:35:53;10.03;;;3.27;;
9042;SDS011;4556;49.150;8.808;2023-02-02T11:38:22;13.00;;;3.73;;
9042;SDS011;4556;49.150;8.808;2023-02-02T11:40:52;11.13;;;3.20;;
9042;SDS011;4556;49.150;8.808;2023-02-02T11:43:24;10.23;;;3.23;;
9042;SDS011;4556;49.150;8.808;2023-02-02T11:45:55;9.33;;;2.90;;
9042;SDS011;4556;49.150;8.808;2023-02-02T11:48:26;10.47;;;2.90;;
9042;SDS011;4556;49.150;8.808;2023-02-02T11:50:56;10.13;;;3.60;;
9042;SDS011;4556;49.150;8.808;2023-02-02T11:53:25;12.40;;;3.83;;
9042;SDS011;4556;49.150;8.808;2023-02-02T11:55:54;17.57;;;4.40;;
9042;SDS011;4556;49.150;8.808;2023-02-02T11:58:25;12.37;;;3.93;;
9042;SDS011;4556;49.150;8.808;2023-02-02T12:00:56;13.37;;;3.93;;
9042;SDS011;4556;49.150;8.808;2023-02-02T12:03:26;19.50;;;4.67;;
9042;SDS011;4556;49.150;8.808;2023-02-02T12:05:57;13.60;;;3.57;;
9042;SDS011;4556;49.150;8.808;2023-02-02T12:08:26;13.73;;;3.70;;
9042;SDS011;4556;49.150;8.808;2023-02-02T12:10:55;11.13;;;3.17;;
9042;SDS011;4556;49.150;8.808;2023-02-02T12:16:25;15.57;;;3.30;;
9042;SDS011;4556;49.150;8.808;2023-02-02T12:19:24;11.03;;;3.73;;
9042;SDS011;4556;49.150;8.808;2023-02-02T12:22:17;7.30;;;2.90;;
9042;SDS011;4556;49.150;8.808;2023-02-02T12:24:54;8.90;;;2.53;;
9042;SDS011;4556;49.150;8.808;2023-02-02T12:27:27;10.50;;;3.13;;
9042;SDS011;4556;49.150;8.808;2023-02-02T12:30:06;10.77;;;3.30;;
9042;SDS011;4556;49.150;8.808;2023-02-02T12:32:55;10.83;;;2.87;;
9042;SDS011;4556;49.150;8.808;2023-02-02T12:35:31;10.13;;;2.50;;
9042;SDS011;4556;49.150;8.808;2023-02-02T12:38:15;11.47;;;2.63;;
9042;SDS011;4556;49.150;8.808;2023-02-02T12:40:57;10.13;;;2.63;;
9042;SDS011;4556;49.150;8.808;2023-02-02T12:43:45;8.77;;;3.10;;
9042;SDS011;4556;49.150;8.808;2023-02-02T12:49:17;7.23;;;2.60;;
9042;SDS011;4556;49.150;8.808;2023-02-02T12:51:54;10.93;;;2.47;;
9042;SDS011;4556;49.150;8.808;2023-02-02T12:54:39;6.97;;;2.27;;
9042;SDS011;4556;49.150;8.808;2023-02-02T12:57:17;7.27;;;2.70;;
9042;SDS011;4556;49.150;8.808;2023-02-02T13:00:00;8.67;;;2.50;;
9042;SDS011;4556;49.150;8.808;2023-02-02T13:02:53;9.40;;;2.50;;
9042;SDS011;4556;49.150;8.808;2023-02-02T13:05:31;10.53;;;2.33;;
9042;SDS011;4556;49.150;8.808;2023-02-02T13:08:08;6.97;;;2.47;;
9042;SDS011;4556;49.150;8.808;2023-02-02T13:10:38;13.67;;;2.80;;
9042;SDS011;4556;49.150;8.808;2023-02-02T13:13:08;7.57;;;2.17;;
9042;SDS011;4556;49.150;8.808;2023-02-02T13:15:40;10.67;;;2.50;;
9042;SDS011;4556;49.150;8.808;2023-02-02T13:18:13;7.27;;;2.33;;
9042;SDS011;4556;49.150;8.808;2023-02-02T13:20:44;9.57;;;2.27;;
9042;SDS011;4556;49.150;8.808;2023-02-02T13:23:14;7.73;;;2.37;;
9042;SDS011;4556;49.150;8.808;2023-02-02T13:25:46;9.60;;;1.90;;
9042;SDS011;4556;49.150;8.808;2023-02-02T13:28:21;8.77;;;2.27;;
9042;SDS011;4556;49.150;8.808;2023-02-02T13:31:03;8.03;;;2.20;;
9042;SDS011;4556;49.150;8.808;2023-02-02T13:33:38;9.20;;;2.27;;
9042;SDS011;4556;49.150;8.808;2023-02-02T13:36:09;8.73;;;2.53;;
9042;SDS011;4556;49.150;8.808;2023-02-02T13:38:43;7.87;;;2.40;;
9042;SDS011;4556;49.150;8.808;2023-02-02T13:41:10;11.70;;;2.47;;
9042;SDS011;4556;49.150;8.808;2023-02-02T13:43:41;11.33;;;2.43;;
9042;SDS011;4556;49.150;8.808;2023-02-02T13:46:19;10.20;;;2.43;;
9042;SDS011;4556;49.150;8.808;2023-02-02T13:48:58;7.17;;;2.57;;
9042;SDS011;4556;49.150;8.808;2023-02-02T13:51:43;7.13;;;2.20;;
9042;SDS011;4556;49.150;8.808;2023-02-02T13:57:45;11.23;;;2.73;;
9042;SDS011;4556;49.150;8.808;2023-02-02T14:00:32;10.00;;;2.40;;
9042;SDS011;4556;49.150;8.808;2023-02-02T14:03:04;10.27;;;2.57;;
9042;SDS011;4556;49.150;8.808;2023-02-02T14:05:47;15.93;;;3.83;;
9042;SDS011;4556;49.150;8.808;2023-02-02T14:08:28;10.83;;;2.70;;
9042;SDS011;4556;49.150;8.808;2023-02-02T14:10:57;10.90;;;2.53;;
9042;SDS011;4556;49.150;8.808;2023-02-02T14:13:28;11.00;;;2.43;;
9042;SDS011;4556;49.150;8.808;2023-02-02T14:16:20;10.63;;;2.50;;
9042;SDS011;4556;49.150;8.808;2023-02-02T14:18:53;9.00;;;2.30;;
9042;SDS011;4556;49.150;8.808;2023-02-02T14:24:41;7.47;;;2.33;;
9042;SDS011;4556;49.150;8.808;2023-02-02T14:30:31;7.17;;;2.00;;
9042;SDS011;4556;49.150;8.808;2023-02-02T14:36:02;7.30;;;2.40;;
9042;SDS011;4556;49.150;8.808;2023-02-02T14:47:46;7.03;;;2.10;;
9042;SDS011;4556;49.150;8.808;2023-02-02T14:50:17;9.03;;;2.43;;
9042;SDS011;4556;49.150;8.808;2023-02-02T14:52:56;10.23;;;2.10;;
9042;SDS011;4556;49.150;8.808;2023-02-02T14:55:26;10.00;;;2.00;;
9042;SDS011;4556;49.150;8.808;2023-02-02T14:57:54;10.63;;;2.47;;
9042;SDS011;4556;49.150;8.808;2023-02-02T15:00:27;10.93;;;2.37;;
9042;SDS011;4556;49.150;8.808;2023-02-02T15:03:00;9.30;;;2.07;;
9042;SDS011;4556;49.150;8.808;2023-02-02T15:06:02;7.30;;;2.53;;
9042;SDS011;4556;49.150;8.808;2023-02-02T15:08:33;7.40;;;2.20;;
9042;SDS011;4556;49.150;8.808;2023-02-02T15:11:04;6.80;;;2.57;;
9042;SDS011;4556;49.150;8.808;2023-02-02T15:13:58;8.77;;;2.40;;
9042;SDS011;4556;49.150;8.808;2023-02-02T15:16:34;5.27;;;1.60;;
9042;SDS011;4556;49.150;8.808;2023-02-02T15:19:05;8.17;;;1.80;;
9042;SDS011;4556;49.150;8.808;2023-02-02T15:21:39;7.43;;;1.90;;
9042;SDS011;4556;49.150;8.808;2023-02-02T15:24:14;9.00;;;2.27;;
9042;SDS011;4556;49.150;8.808;2023-02-02T15:26:46;9.23;;;2.27;;
9042;SDS011;4556;49.150;8.808;2023-02-02T15:29:15;8.07;;;2.03;;
9042;SDS011;4556;49.150;8.808;2023-02-02T15:31:49;7.23;;;2.00;;
9042;SDS011;4556;49.150;8.808;2023-02-02T15:34:21;5.10;;;1.63;;
9042;SDS011;4556;49.150;8.808;2023-02-02T15:36:51;7.17;;;2.20;;
9042;SDS011;4556;49.150;8.808;2023-02-02T15:39:25;9.27;;;2.70;;
9042;SDS011;4556;49.150;8.808;2023-02-02T15:41:55;8.30;;;1.97;;
9042;SDS011;4556;49.150;8.808;2023-02-02T15:44:41;6.70;;;1.80;;
9042;SDS011;4556;49.150;8.808;2023-02-02T15:47:11;6.20;;;2.60;;
9042;SDS011;4556;49.150;8.808;2023-02-02T15:49:42;5.73;;;1.73;;
9042;SDS011;4556;49.150;8.808;2023-02-02T15:52:11;11.73;;;2.13;;
9042;SDS011;4556;49.150;8.808;2023-02-02T15:54:50;8.13;;;1.57;;
9042;SDS011;4556;49.150;8.808;2023-02-02T15:57:22;9.53;;;1.60;;
9042;SDS011;4556;49.150;8.808;2023-02-02T15:59:53;5.13;;;1.73;;
9042;SDS011;4556;49.150;8.808;2023-02-02T16:02:25;5.37;;;1.70;;
9042;SDS011;4556;49.150;8.808;2023-02-02T16:04:57;11.07;;;2.10;;
9042;SDS011;4556;49.150;8.808;2023-02-02T16:07:25;6.40;;;2.30;;